Terminal Aerodrome Forecast
Issued by NWS

Home | Current Version | Previous Version | Text Only | Print | Product List | Glossary On
Versions: 1 2 3 4 5 6 7 8 9 10 11 12 13 14
112
FTUS45 KTFX 261729
TAFHVR
TAF
KHVR 261729Z 2618/2718 05007KT P6SM VCSH BKN050
      TEMPO 2618/2622 -SHRA SCT030 OVC050
     FM270100 VRB06KT P6SM BKN050=

USA.gov is the U.S. government's official web portal to all federal, state and local government web resources and services.